Time;durP1;ratioP1;P1;durP2;ratioP2;P2;SDS_P1;SDS_P2;PMS_P1;PMS_P2;Temp;Humidity;BMP_temperature;BMP_pressure;BME280_temperature;BME280_humidity;BME280_pressure;Samples;Min_cycle;Max_cycle;Signal;HPM_P1;HPM_P2
2021/12/18 00:00:59;;;;;;;;;11.00;9.50;;;;;22.09;38.36;103478.00;5032062;28;45604;-67
2021/12/18 00:03:24;;;;;;;;;13.00;11.00;;;;;22.15;38.08;103490.78;5013963;28;47189;-67
2021/12/18 00:05:49;;;;;;;;;12.75;11.75;;;;;22.11;37.89;103486.69;5018318;28;45458;-67
2021/12/18 00:08:15;;;;;;;;;13.25;12.50;;;;;22.10;38.18;103470.88;5020001;28;45256;-68
2021/12/18 00:10:41;;;;;;;;;12.75;11.25;;;;;22.14;37.76;103483.81;5019481;28;45407;-67
2021/12/18 00:13:06;;;;;;;;;13.75;10.00;;;;;22.13;37.99;103482.09;5019540;28;45532;-67
2021/12/18 00:15:32;;;;;;;;;10.75;9.25;;;;;22.12;37.77;103482.22;5017127;27;45456;-67
2021/12/18 00:17:58;;;;;;;;;15.00;12.25;;;;;22.08;37.76;103473.66;5017540;28;45423;-67
2021/12/18 00:20:25;;;;;;;;;9.50;9.25;;;;;22.12;38.04;103477.75;5019795;27;45402;-67
2021/12/18 00:22:51;;;;;;;;;11.50;11.25;;;;;22.06;38.08;103465.81;5019117;27;46753;-67
2021/12/18 00:25:17;;;;;;;;;13.50;12.75;;;;;22.13;37.84;103481.25;5018593;28;45288;-67
2021/12/18 00:27:42;;;;;;;;;13.25;11.00;;;;;22.11;37.80;103480.53;5018175;28;45318;-67
2021/12/18 00:30:09;;;;;;;;;12.50;11.75;;;;;22.12;38.07;103483.06;5016906;28;45155;-67
2021/12/18 00:32:35;;;;;;;;;13.50;13.00;;;;;22.10;38.03;103481.47;5018921;28;45618;-67
2021/12/18 00:35:01;;;;;;;;;10.00;10.00;;;;;22.11;37.57;103484.03;5004509;28;46335;-67
2021/12/18 00:37:26;;;;;;;;;10.00;9.00;;;;;22.11;37.58;103483.19;5019488;28;45455;-67
2021/12/18 00:39:59;;;;;;;;;11.25;10.75;;;;;22.10;37.47;103484.13;5019079;28;45502;-67
2021/12/18 00:45:09;;;;;;;;;9.00;9.00;;;;;22.11;37.95;103481.38;5030454;28;45417;-67
2021/12/18 00:47:34;;;;;;;;;10.75;10.50;;;;;22.10;37.94;103477.03;5028507;28;45425;-68
2021/12/18 00:50:00;;;;;;;;;14.50;11.25;;;;;22.05;37.99;103468.56;5021025;28;45549;-67
2021/12/18 00:52:25;;;;;;;;;11.00;9.25;;;;;22.10;37.50;103474.38;5019206;28;45355;-67
2021/12/18 00:54:51;;;;;;;;;11.50;10.25;;;;;22.06;37.90;103472.94;5019061;28;45255;-67
2021/12/18 00:57:17;;;;;;;;;10.00;10.00;;;;;22.11;37.55;103485.84;5015303;28;45356;-67
2021/12/18 00:59:42;;;;;;;;;13.75;11.50;;;;;22.07;37.66;103477.25;5019238;27;45496;-67
2021/12/18 01:02:07;;;;;;;;;13.25;9.75;;;;;22.10;37.71;103479.69;5019136;28;46451;-67
2021/12/18 01:04:33;;;;;;;;;11.00;11.00;;;;;22.13;37.46;103487.41;5018499;28;45528;-67
2021/12/18 01:06:58;;;;;;;;;11.00;10.75;;;;;22.06;37.88;103465.81;5018907;28;45483;-67
2021/12/18 01:09:38;;;;;;;;;10.75;10.50;;;;;22.12;37.31;103483.06;5014625;28;45533;-67
2021/12/18 01:12:06;;;;;;;;;12.25;11.00;;;;;22.12;37.43;103479.59;5016434;27;47397;-67
2021/12/18 01:25:04;;;;;;;;;11.25;10.75;;;;;22.13;37.77;103478.59;5018833;28;45381;-67
2021/12/18 01:27:31;;;;;;;;;13.25;11.50;;;;;22.11;37.65;103475.22;5015663;28;45513;-67
2021/12/18 01:29:56;;;;;;;;;9.75;9.00;;;;;22.13;37.27;103486.56;5016580;27;45488;-67
2021/12/18 01:32:22;;;;;;;;;12.25;10.75;;;;;22.06;37.77;103471.13;5018880;28;45486;-67
2021/12/18 01:34:48;;;;;;;;;11.25;9.25;;;;;22.03;37.40;103466.06;5018866;28;45182;-68
2021/12/18 01:37:14;;;;;;;;;13.75;11.75;;;;;22.10;37.40;103473.53;5018206;28;45500;-67
2021/12/18 01:39:40;;;;;;;;;13.50;10.75;;;;;22.09;37.33;103471.84;5017102;28;45498;-67
2021/12/18 01:52:39;;;;;;;;;11.00;11.00;;;;;22.07;37.59;103466.66;5030890;28;45498;-67
2021/12/18 01:55:06;;;;;;;;;12.00;10.00;;;;;22.07;37.84;103475.44;5031188;28;45353;-67
2021/12/18 01:57:32;;;;;;;;;12.00;12.00;;;;;22.04;37.50;103472.22;5031659;27;45410;-67
2021/12/18 01:59:57;;;;;;;;;10.75;10.00;;;;;22.07;37.74;103471.94;5032650;27;45362;-67
2021/12/18 02:02:23;;;;;;;;;10.75;9.25;;;;;22.06;37.80;103473.78;5032065;28;47389;-67
2021/12/18 02:04:49;;;;;;;;;8.00;7.00;;;;;22.03;37.74;103479.31;5030779;27;45538;-67
2021/12/18 02:07:15;;;;;;;;;14.75;12.00;;;;;22.06;37.49;103486.19;5029510;28;45394;-67
2021/12/18 02:20:44;;;;;;;;;13.00;10.50;;;;;22.03;37.76;103478.47;4989585;28;45488;-67
2021/12/18 02:23:10;;;;;;;;;11.50;10.50;;;;;22.02;37.68;103474.97;5024588;28;46346;-68
2021/12/18 02:25:36;;;;;;;;;12.25;10.50;;;;;22.01;37.69;103465.34;5071770;28;45407;-68
2021/12/18 02:28:14;;;;;;;;;11.00;11.00;;;;;22.04;37.58;103470.38;5072197;28;45816;-67
2021/12/18 02:30:40;;;;;;;;;10.25;8.00;;;;;22.02;37.57;103467.00;5072206;27;45510;-67
2021/12/18 02:33:05;;;;;;;;;10.25;8.25;;;;;22.04;37.56;103467.72;5071767;28;46451;-67
2021/12/18 02:35:36;;;;;;;;;10.00;9.50;;;;;22.07;37.56;103472.81;5073538;27;45420;-67
2021/12/18 02:38:15;;;;;;;;;10.75;9.50;;;;;22.06;37.27;103479.09;5071929;27;45500;-67
2021/12/18 02:40:52;;;;;;;;;8.50;8.25;;;;;22.07;37.45;103479.91;5071260;28;45262;-68
2021/12/18 02:43:19;;;;;;;;;13.50;12.00;;;;;22.07;37.53;103479.91;5071252;27;47271;-67
2021/12/18 02:45:44;;;;;;;;;7.00;7.00;;;;;22.01;37.84;103465.34;5074881;27;45598;-67
2021/12/18 02:48:09;;;;;;;;;11.50;10.00;;;;;22.06;37.25;103479.09;5114619;27;45370;-67
2021/12/18 02:50:39;;;;;;;;;11.50;11.50;;;;;22.01;37.33;103467.97;5116459;27;45430;-67
2021/12/18 02:53:06;;;;;;;;;11.00;9.75;;;;;22.09;37.26;103477.16;5112850;27;46379;-68
2021/12/18 02:55:31;;;;;;;;;7.75;7.50;;;;;22.10;37.43;103476.19;5114549;27;45483;-67
2021/12/18 02:57:57;;;;;;;;;11.50;10.25;;;;;22.05;37.43;103471.22;5114569;27;45653;-67
2021/12/18 03:00:25;;;;;;;;;11.75;10.25;;;;;22.07;37.53;103472.81;5114475;27;45500;-67
2021/12/18 03:02:50;;;;;;;;;10.25;8.75;;;;;22.05;37.09;103474.72;5116429;27;47438;-67
2021/12/18 03:05:22;;;;;;;;;12.00;10.75;;;;;22.05;37.11;103468.56;5093780;27;45504;-66
2021/12/18 03:07:53;;;;;;;;;10.25;10.25;;;;;22.03;37.92;103478.47;5110283;27;45482;-67
2021/12/18 03:22:31;;;;;;;;;11.50;8.50;;;;;22.05;37.42;103481.84;5114594;27;45631;-67
2021/12/18 03:24:43;;;;;;;;;10.25;9.25;;;;;22.03;37.09;103481.09;5040334;27;46713;-67
2021/12/18 03:26:54;;;;;;;;;9.00;9.00;;;;;21.99;37.75;103467.22;5026117;28;45432;-67
2021/12/18 03:29:19;;;;;;;;;11.75;8.50;;;;;22.01;37.67;103472.44;5030649;28;45396;-67
2021/12/18 03:31:46;;;;;;;;;9.00;9.00;;;;;22.04;37.29;103470.38;5028696;28;45556;-67
2021/12/18 03:34:12;;;;;;;;;4.75;4.75;;;;;22.03;37.72;103470.50;5029339;28;46210;-67
2021/12/18 03:36:37;;;;;;;;;11.25;10.75;;;;;22.03;37.25;103470.50;5030115;27;45523;-67
2021/12/18 03:39:03;;;;;;;;;8.75;8.75;;;;;22.03;37.02;103470.50;5014441;28;45367;-67
2021/12/18 03:41:28;;;;;;;;;9.25;8.00;;;;;22.02;37.63;103466.16;5035137;27;45350;-66
2021/12/18 03:43:54;;;;;;;;;11.75;9.00;;;;;22.02;37.49;103459.06;5032859;28;45442;-67
2021/12/18 03:46:19;;;;;;;;;16.00;12.00;;;;;21.96;37.34;103452.41;5032759;28;45473;-67
2021/12/18 03:48:44;;;;;;;;;9.00;8.25;;;;;22.03;37.22;103474.00;5032680;28;45528;-67
2021/12/18 03:51:10;;;;;;;;;15.75;10.50;;;;;21.97;37.54;103463.84;5032584;28;45727;-67
2021/12/18 03:53:35;;;;;;;;;10.50;8.25;;;;;22.00;37.25;103466.28;5012015;28;45544;-66
2021/12/18 03:56:02;;;;;;;;;13.50;12.00;;;;;22.00;37.41;103465.44;5030962;28;45354;-66
2021/12/18 03:58:27;;;;;;;;;10.50;10.25;;;;;21.99;37.21;103458.47;5032802;28;45435;-67
2021/12/18 04:00:53;;;;;;;;;11.25;9.50;;;;;22.03;37.13;103466.06;5016111;27;45474;-67
2021/12/18 04:03:18;;;;;;;;;10.50;10.50;;;;;22.03;37.18;103463.41;5031523;27;45421;-67
2021/12/18 04:05:43;;;;;;;;;10.75;9.50;;;;;22.03;37.50;103463.41;5034557;28;45468;-67
2021/12/18 04:08:09;;;;;;;;;10.00;10.00;;;;;22.01;37.56;103459.19;5032603;28;45539;-67
2021/12/18 04:10:40;;;;;;;;;13.00;8.75;;;;;22.03;37.16;103460.75;5031423;28;45623;-68
2021/12/18 04:13:07;;;;;;;;;8.50;8.50;;;;;22.01;37.08;103462.69;5032418;28;45679;-68
2021/12/18 04:15:32;;;;;;;;;13.00;9.50;;;;;22.03;37.15;103463.41;5032351;27;45565;-66
2021/12/18 04:17:58;;;;;;;;;10.75;10.50;;;;;22.01;37.16;103454.72;5033511;28;45321;-67
2021/12/18 04:20:24;;;;;;;;;13.00;10.50;;;;;21.95;37.23;103444.56;5033593;28;45480;-68
2021/12/18 04:22:53;;;;;;;;;12.25;9.75;;;;;21.99;37.50;103445.19;5032380;27;45436;-67
2021/12/18 04:25:18;;;;;;;;;10.75;9.50;;;;;22.03;36.98;103451.94;5032264;28;45282;-68
2021/12/18 04:27:44;;;;;;;;;11.50;10.50;;;;;22.04;36.99;103457.13;5032270;28;45465;-66
2021/12/18 04:30:10;;;;;;;;;12.25;9.50;;;;;22.04;37.14;103459.78;5032085;27;45355;-67
2021/12/18 04:32:35;;;;;;;;;10.50;9.00;;;;;22.00;37.07;103453.03;5034422;28;45627;-67
2021/12/18 04:35:01;;;;;;;;;12.50;12.00;;;;;22.02;36.85;103447.59;5011788;27;47345;-67
2021/12/18 04:37:27;;;;;;;;;11.75;8.75;;;;;22.04;37.37;103456.31;5024434;28;45490;-67
2021/12/18 04:39:54;;;;;;;;;10.00;9.00;;;;;21.96;37.34;103443.63;5032465;28;45558;-67
2021/12/18 04:42:20;;;;;;;;;11.25;9.50;;;;;22.05;37.27;103450.88;5031930;28;47964;-68
2021/12/18 04:44:46;;;;;;;;;12.75;12.25;;;;;22.01;37.21;103446.78;5033841;27;45531;-68
2021/12/18 04:47:15;;;;;;;;;6.75;6.50;;;;;22.01;37.36;103454.72;5019466;27;45586;-68
2021/12/18 04:49:41;;;;;;;;;15.00;10.25;;;;;22.04;37.53;103454.47;5024690;28;45456;-68
2021/12/18 04:52:07;;;;;;;;;10.50;10.50;;;;;22.05;37.63;103452.66;5015814;27;47045;-69
2021/12/18 04:54:32;;;;;;;;;12.00;10.50;;;;;22.00;37.88;103447.72;5032251;28;45384;-68
2021/12/18 04:57:00;;;;;;;;;11.00;10.00;;;;;22.02;37.62;103452.91;5026361;28;45496;-67
2021/12/18 04:59:26;;;;;;;;;8.50;8.00;;;;;22.03;37.16;103450.16;5026945;28;45446;-68
2021/12/18 05:01:52;;;;;;;;;12.50;11.25;;;;;22.04;37.15;103458.94;5046772;27;46144;-68
2021/12/18 05:04:26;;;;;;;;;12.00;9.50;;;;;22.01;37.14;103446.78;5034704;27;45292;-68
2021/12/18 05:06:58;;;;;;;;;11.00;9.00;;;;;22.04;37.42;103454.47;5030264;28;45336;-67
2021/12/18 05:09:23;;;;;;;;;10.00;8.00;;;;;21.99;37.97;103451.31;5024267;28;45479;-67
2021/12/18 05:11:52;;;;;;;;;11.75;9.50;;;;;21.94;37.69;103438.44;5015503;28;46022;-67
2021/12/18 05:14:21;;;;;;;;;7.50;7.00;;;;;22.05;37.67;103450.03;5027359;28;45373;-68
2021/12/18 05:16:52;;;;;;;;;10.25;8.75;;;;;22.03;37.61;103444.00;5069232;27;45516;-68
2021/12/18 05:19:17;;;;;;;;;10.75;10.75;;;;;22.04;37.82;103440.41;5031099;28;45594;-69
2021/12/18 05:21:43;;;;;;;;;9.25;8.25;;;;;22.01;37.67;103432.66;5030149;28;46148;-68
2021/12/18 05:24:11;;;;;;;;;13.75;9.75;;;;;22.03;37.79;103438.69;5031689;27;45476;-69
2021/12/18 05:26:37;;;;;;;;;9.75;9.75;;;;;22.05;38.00;103445.56;5033943;28;45580;-69
2021/12/18 05:29:02;;;;;;;;;13.50;10.00;;;;;22.05;37.99;103442.06;5014632;28;45507;-69
2021/12/18 05:31:28;;;;;;;;;7.00;7.00;;;;;22.02;37.75;103440.50;5025504;27;46082;-66
